Time;durP1;ratioP1;P1;durP2;ratioP2;P2;SDS_P1;SDS_P2;PMS_P1;PMS_P2;Temp;Humidity;BMP_temperature;BMP_pressure;BME280_temperature;BME280_humidity;BME280_pressure;Samples;Min_cycle;Max_cycle;Signal;HPM_P1;HPM_P2
2021/07/12 00:02:15;;;;;;;10.25;5.10;;;;;;;16.05;100.00;100209.41;4980395;28;20110;-67
2021/07/12 00:04:59;;;;;;;10.35;5.40;;;;;;;16.06;100.00;100211.09;4994191;28;20105;-67
2021/07/12 00:07:43;;;;;;;10.60;5.07;;;;;;;16.07;100.00;100202.00;4994161;28;20049;-66
2021/07/12 00:10:29;;;;;;;6.20;5.07;;;;;;;16.06;100.00;100205.72;4994087;28;20053;-67
2021/07/12 00:13:13;;;;;;;8.35;4.80;;;;;;;16.05;100.00;100193.28;4993984;28;20048;-66
2021/07/12 00:15:57;;;;;;;7.85;5.57;;;;;;;16.03;100.00;100189.94;4980281;28;20411;-64
2021/07/12 00:18:41;;;;;;;9.10;5.53;;;;;;;16.04;100.00;100190.78;4980057;28;20136;-67
2021/07/12 00:21:25;;;;;;;8.90;5.45;;;;;;;16.03;100.00;100189.94;4994503;28;20129;-66
2021/07/12 00:24:10;;;;;;;7.63;5.40;;;;;;;16.02;100.00;100184.75;4993826;28;20104;-66
2021/07/12 00:26:54;;;;;;;8.77;5.65;;;;;;;16.00;100.00;100179.56;4993792;28;20177;-66
2021/07/12 00:29:38;;;;;;;6.00;5.40;;;;;;;15.97;100.00;100177.22;4993489;28;20112;-67
2021/07/12 00:32:21;;;;;;;9.23;5.88;;;;;;;15.95;100.00;100168.50;4994667;28;20053;-66
2021/07/12 00:35:07;;;;;;;7.20;5.28;;;;;;;15.91;100.00;100172.56;4993635;28;20061;-66
2021/07/12 00:37:52;;;;;;;9.70;4.75;;;;;;;15.87;100.00;100189.25;4993409;28;20104;-66
2021/07/12 00:40:36;;;;;;;7.05;5.18;;;;;;;15.83;100.00;100172.63;4994500;28;20065;-66
2021/07/12 00:43:20;;;;;;;6.50;5.32;;;;;;;15.81;100.00;100174.69;4993790;28;20068;-67
2021/07/12 00:46:08;;;;;;;11.35;5.10;;;;;;;15.79;100.00;100168.66;4994462;28;20209;-66
2021/07/12 00:48:52;;;;;;;7.85;5.32;;;;;;;15.77;100.00;100146.47;4993371;28;20049;-66
2021/07/12 00:51:36;;;;;;;9.18;5.13;;;;;;;15.70;100.00;100133.94;4979636;28;20108;-66
2021/07/12 00:54:26;;;;;;;10.95;5.60;;;;;;;15.70;100.00;100145.53;4994321;28;20056;-66
2021/07/12 00:57:10;;;;;;;6.05;5.35;;;;;;;15.68;100.00;100144.84;4993185;28;20053;-66
2021/07/12 00:59:54;;;;;;;6.63;5.07;;;;;;;15.65;100.00;100136.34;4993004;28;20133;-66
2021/07/12 01:02:38;;;;;;;5.88;5.28;;;;;;;15.61;100.00;100142.25;4993295;28;20049;-67
2021/07/12 01:05:23;;;;;;;6.57;5.60;;;;;;;15.55;100.00;100141.13;4992934;28;20475;-66
2021/07/12 01:08:07;;;;;;;7.00;5.90;;;;;;;15.54;100.00;100127.84;4993116;28;20045;-66
2021/07/12 01:11:30;;;;;;;9.55;6.25;;;;;;;15.56;100.00;100131.19;4994131;28;20475;-67
2021/07/12 01:14:40;;;;;;;7.65;5.65;;;;;;;15.55;100.00;100134.91;4994047;28;20053;-66
2021/07/12 01:17:41;;;;;;;9.20;5.93;;;;;;;15.56;100.00;100126.66;4973074;28;20049;-66
2021/07/12 01:20:39;;;;;;;9.55;6.13;;;;;;;15.56;100.00;100132.03;4993888;28;20101;-67
2021/07/12 01:23:38;;;;;;;8.38;6.18;;;;;;;15.57;100.00;100116.72;4994223;28;20470;-66
2021/07/12 01:26:40;;;;;;;9.88;6.20;;;;;;;15.58;100.00;100112.00;4993015;28;20515;-66
2021/07/12 01:29:45;;;;;;;9.63;6.63;;;;;;;15.57;100.00;100116.72;4993613;28;20130;-66
2021/07/12 01:32:50;;;;;;;9.38;6.10;;;;;;;15.56;100.00;100131.19;4992916;28;20077;-66
2021/07/12 01:35:58;;;;;;;8.63;6.40;;;;;;;15.55;100.00;100135.75;4992945;28;20140;-67
2021/07/12 01:38:52;;;;;;;7.70;6.53;;;;;;;15.55;100.00;100129.53;4993795;28;20291;-67
2021/07/12 01:41:46;;;;;;;6.88;6.00;;;;;;;15.55;100.00;100134.91;4993603;28;20129;-67
2021/07/12 01:44:58;;;;;;;6.63;5.90;;;;;;;15.53;100.00;100120.81;4993846;28;20045;-67
2021/07/12 01:48:08;;;;;;;9.65;6.70;;;;;;;15.52;100.00;100124.50;4993677;28;20061;-66
2021/07/12 01:50:57;;;;;;;8.90;6.70;;;;;;;15.51;100.00;100130.91;4992758;28;20052;-66
2021/07/12 01:53:47;;;;;;;9.15;6.45;;;;;;;15.51;100.00;100133.59;4992521;28;20105;-67
2021/07/12 01:56:38;;;;;;;10.15;6.65;;;;;;;15.51;100.00;100136.28;4992471;28;20049;-67
2021/07/12 01:59:56;;;;;;;7.90;6.38;;;;;;;15.49;100.00;100135.63;4992233;28;20415;-67
2021/07/12 02:02:42;;;;;;;7.55;5.78;;;;;;;15.49;100.00;100132.94;4995998;28;20100;-67
2021/07/12 02:05:28;;;;;;;7.13;6.03;;;;;;;15.49;100.00;100130.25;4996395;28;20057;-67
2021/07/12 02:08:15;;;;;;;6.90;6.20;;;;;;;15.48;100.00;100125.88;4996286;28;20475;-67
2021/07/12 02:10:59;;;;;;;9.02;6.03;;;;;;;15.48;100.00;100118.66;4996313;28;20461;-67
2021/07/12 02:13:49;;;;;;;9.38;6.60;;;;;;;15.48;100.00;100123.19;4996296;28;20045;-67
2021/07/12 02:16:34;;;;;;;8.93;7.10;;;;;;;15.47;100.00;100121.50;4996241;28;20051;-66
2021/07/12 02:19:19;;;;;;;7.03;6.10;;;;;;;15.49;100.00;100120.31;4995853;28;20053;-66
2021/07/12 02:22:04;;;;;;;8.50;6.28;;;;;;;15.51;100.00;100120.97;4995827;28;20050;-66
2021/07/12 02:24:48;;;;;;;8.45;5.90;;;;;;;15.49;100.00;100114.13;4996075;28;20084;-66
2021/07/12 02:27:33;;;;;;;9.57;6.07;;;;;;;15.45;100.00;100112.78;4996063;28;20073;-67
2021/07/12 02:30:17;;;;;;;10.93;6.32;;;;;;;15.46;100.00;100114.47;4995999;28;20048;-66
2021/07/12 02:33:02;;;;;;;8.32;6.70;;;;;;;15.42;100.00;100121.22;4996151;28;20045;-67
2021/07/12 02:35:46;;;;;;;17.92;6.72;;;;;;;15.38;100.00;100117.19;4995905;28;20054;-67
2021/07/12 02:38:30;;;;;;;7.72;5.78;;;;;;;15.35;100.00;100112.19;4995547;28;20053;-66
2021/07/12 02:41:14;;;;;;;9.20;5.82;;;;;;;15.35;100.00;100104.13;4995695;28;20627;-67
2021/07/12 02:43:59;;;;;;;11.38;6.10;;;;;;;15.32;100.00;100101.81;4996014;28;20048;-66
2021/07/12 02:46:43;;;;;;;7.90;5.63;;;;;;;15.25;100.00;100095.44;4995662;28;20073;-67
2021/07/12 02:49:28;;;;;;;9.30;5.97;;;;;;;15.21;100.00;100088.78;4995313;28;20089;-67
2021/07/12 02:52:31;;;;;;;6.60;5.25;;;;;;;15.18;100.00;100089.09;4995573;28;20049;-68
2021/07/12 02:55:15;;;;;;;8.10;6.32;;;;;;;15.15;100.00;100095.69;4995804;28;20049;-66
2021/07/12 02:57:59;;;;;;;6.60;6.00;;;;;;;15.09;100.00;100096.38;4994985;28;20057;-67
2021/07/12 03:00:44;;;;;;;8.98;6.32;;;;;;;15.08;100.00;100088.53;4996728;28;20046;-66
2021/07/12 03:03:27;;;;;;;8.60;5.95;;;;;;;15.04;100.00;100088.03;4996087;28;20053;-67
2021/07/12 03:06:13;;;;;;;7.97;6.95;;;;;;;15.01;100.00;100082.19;4996286;28;20131;-67
2021/07/12 03:09:02;;;;;;;10.82;6.70;;;;;;;14.97;100.00;100086.22;4981313;28;20053;-63
2021/07/12 03:11:51;;;;;;;11.75;7.40;;;;;;;14.93;100.00;100090.28;4994858;28;20042;-66
2021/07/12 03:14:38;;;;;;;11.35;7.18;;;;;;;14.91;100.00;100084.25;4994368;28;20524;-66
2021/07/12 03:17:22;;;;;;;8.20;7.00;;;;;;;14.90;100.00;100090.63;4995133;28;20060;-66
2021/07/12 03:20:07;;;;;;;9.32;6.85;;;;;;;14.90;100.00;100091.47;4994825;28;20048;-67
2021/07/12 03:22:54;;;;;;;8.93;6.78;;;;;;;14.90;100.00;100085.25;4994957;28;20093;-67
2021/07/12 03:25:43;;;;;;;13.98;7.97;;;;;;;14.90;100.00;100086.09;4994727;28;20093;-67
2021/07/12 03:28:27;;;;;;;8.32;6.88;;;;;;;14.90;100.00;100086.09;4994820;28;20169;-66
2021/07/12 03:31:12;;;;;;;10.38;7.82;;;;;;;14.94;100.00;100081.22;4995546;28;20049;-67
2021/07/12 03:33:56;;;;;;;12.43;8.27;;;;;;;14.98;100.00;100077.19;4994840;28;20093;-67
2021/07/12 03:36:43;;;;;;;12.35;7.80;;;;;;;15.00;100.00;100084.00;4994475;28;20212;-66
2021/07/12 03:39:29;;;;;;;9.98;7.93;;;;;;;15.00;100.00;100075.97;4994809;28;20081;-67
2021/07/12 03:42:13;;;;;;;10.73;8.02;;;;;;;15.01;100.00;100060.72;4995285;28;20057;-67
2021/07/12 03:44:58;;;;;;;9.23;7.53;;;;;;;15.04;100.00;100046.91;4994607;28;20172;-66
2021/07/12 03:47:43;;;;;;;9.63;7.05;;;;;;;15.00;100.00;100041.06;4994568;28;20100;-66
2021/07/12 03:50:28;;;;;;;11.73;7.22;;;;;;;14.99;100.00;100038.56;4994744;28;20049;-67
2021/07/12 03:53:12;;;;;;;9.93;7.72;;;;;;;15.00;100.00;100038.38;4994451;28;20048;-67
2021/07/12 03:55:56;;;;;;;9.40;7.07;;;;;;;14.98;100.00;100039.59;4994426;28;20108;-66
2021/07/12 03:58:40;;;;;;;9.10;7.45;;;;;;;14.98;100.00;100036.91;4994958;28;20525;-66
2021/07/12 04:01:24;;;;;;;12.57;7.50;;;;;;;14.99;100.00;100044.75;4980510;28;20053;-66
2021/07/12 04:04:07;;;;;;;10.38;7.75;;;;;;;15.00;100.00;100037.56;4995249;28;20130;-66
2021/07/12 04:06:51;;;;;;;9.25;7.72;;;;;;;15.00;100.00;100037.56;4994051;28;20530;-66
2021/07/12 04:09:36;;;;;;;8.98;7.45;;;;;;;15.04;100.00;100049.59;4993899;28;20125;-66
2021/07/12 04:12:24;;;;;;;9.70;7.93;;;;;;;15.08;100.00;100042.88;4994782;28;20134;-66
2021/07/12 04:15:09;;;;;;;12.80;7.93;;;;;;;15.16;100.00;100034.75;4994839;28;20049;-67
2021/07/12 04:17:53;;;;;;;9.90;7.80;;;;;;;15.24;100.00;100030.19;4993656;28;20049;-66
2021/07/12 04:20:38;;;;;;;9.48;7.60;;;;;;;15.27;100.00;100028.97;4994555;28;20052;-66
2021/07/12 04:23:22;;;;;;;10.80;6.82;;;;;;;15.33;100.00;100033.66;4994859;28;20045;-66
2021/07/12 04:26:06;;;;;;;9.77;7.03;;;;;;;15.34;100.00;100025.44;4979840;28;20088;-67
2021/07/12 04:28:50;;;;;;;7.70;6.90;;;;;;;15.40;100.00;100029.25;4994431;28;20053;-66
2021/07/12 04:31:34;;;;;;;7.20;6.50;;;;;;;15.45;100.00;100033.06;4993459;28;20053;-67
2021/07/12 04:34:18;;;;;;;13.00;7.50;;;;;;;15.54;100.00;100033.81;4994929;28;20049;-66
2021/07/12 04:37:03;;;;;;;17.17;7.82;;;;;;;15.56;100.00;100031.78;4993432;28;20077;-66
2021/07/12 04:39:46;;;;;;;12.18;7.32;;;;;;;15.60;100.00;100033.91;4979620;28;20101;-66
2021/07/12 04:42:31;;;;;;;13.25;6.55;;;;;;;15.66;100.00;100027.84;4994295;28;20073;-66
2021/07/12 04:45:15;;;;;;;8.63;6.90;;;;;;;15.73;100.00;100029.59;4993736;28;20045;-66
2021/07/12 04:47:59;;;;;;;8.48;6.80;;;;;;;15.77;100.00;100035.44;4993459;28;20062;-66
2021/07/12 04:50:43;;;;;;;12.80;6.80;;;;;;;15.86;100.00;100029.78;4993243;28;20061;-66
2021/07/12 04:53:27;;;;;;;9.05;6.53;;;;;;;15.91;100.00;100029.25;4993383;28;20116;-66
2021/07/12 04:56:11;;;;;;;8.07;6.05;;;;;;;15.98;100.00;100024.81;4993347;28;20557;-66
2021/07/12 04:58:56;;;;;;;8.55;6.85;;;;;;;16.03;100.00;100017.00;4993972;28;20089;-66
2021/07/12 05:01:41;;;;;;;9.18;6.53;;;;;;;16.05;100.00;100021.19;4992969;28;20085;-66
2021/07/12 05:04:25;;;;;;;7.70;6.15;;;;;;;16.09;100.00;100025.16;4979665;28;20053;-66
2021/07/12 05:07:11;;;;;;;10.02;7.20;;;;;;;16.11;100.00;100023.16;4993066;28;20143;-66
2021/07/12 05:09:55;;;;;;;9.68;6.38;;;;;;;16.16;100.00;100017.22;4993821;28;20131;-66
2021/07/12 05:12:39;;;;;;;12.05;7.65;;;;;;;16.18;100.00;100020.56;4993197;28;20510;-66
2021/07/12 05:15:23;;;;;;;10.10;6.53;;;;;;;16.23;100.00;100012.75;4993129;28;20045;-66
2021/07/12 05:18:07;;;;;;;9.38;7.18;;;;;;;16.27;100.00;100006.81;4979313;28;20077;-67
2021/07/12 05:20:51;;;;;;;12.35;6.50;;;;;;;16.40;100.00;99993.56;4992721;28;20056;-67
2021/07/12 05:23:37;;;;;;;14.93;6.55;;;;;;;16.48;100.00;99990.75;4993963;28;20473;-67
2021/07/12 05:26:20;;;;;;;6.55;5.85;;;;;;;16.60;100.00;100000.03;4992963;28;20185;-67
2021/07/12 05:29:04;;;;;;;7.70;6.03;;;;;;;16.64;100.00;99995.09;4979143;28;20108;-67
2021/07/12 05:31:48;;;;;;;8.70;6.18;;;;;;;16.71;100.00;99986.09;4993913;28;20061;-67
2021/07/12 05:34:33;;;;;;;6.68;5.97;;;;;;;16.86;100.00;99994.09;4992920;28;20431;-66
2021/07/12 05:37:16;;;;;;;10.85;5.97;;;;;;;16.96;100.00;99984.69;4996738;28;20048;-67
2021/07/12 05:40:00;;;;;;;6.97;5.43;;;;;;;17.06;100.00;99997.84;4996575;28;20053;-68
2021/07/12 05:42:44;;;;;;;10.57;6.00;;;;;;;17.11;100.00;99992.72;4997825;28;20173;-67
2021/07/12 05:45:28;;;;;;;8.73;5.40;;;;;;;17.20;100.00;100000.47;4997813;28;20057;-67
2021/07/12 05:48:12;;;;;;;9.88;5.35;;;;;;;17.33;100.00;99997.91;4996524;28;20049;-67
2021/07/12 05:50:56;;;;;;;12.88;4.85;;;;;;;17.41;100.00;100000.47;4997725;28;20152;-67
2021/07/12 05:53:40;;;;;;;;;;;;;;;17.56;100.00;100012.03;4996825;28;20049;-66
2021/07/12 05:56:24;;;;;;;7.57;5.10;;;;;;;17.68;100.00;99999.69;4997333;28;20353;-67
2021/07/12 05:59:08;;;;;;;5.20;4.70;;;;;;;17.83;100.00;100000.41;4996081;28;20478;-67
2021/07/12 06:01:52;;;;;;;11.80;4.50;;;;;;;17.98;100.00;99990.34;4997229;28;20085;-67
2021/07/12 06:04:36;;;;;;;9.82;5.05;;;;;;;18.12;100.00;100000.19;4997184;28;20076;-67
2021/07/12 06:07:21;;;;;;;8.13;5.10;;;;;;;18.25;100.00;99999.44;4982463;28;20053;-67
2021/07/12 06:10:07;;;;;;;8.73;4.20;;;;;;;18.38;100.00;99994.97;4996293;28;20136;-66
2021/07/12 06:12:51;;;;;;;5.35;4.82;;;;;;;18.53;100.00;99998.34;4996544;28;20053;-67
2021/07/12 06:15:35;;;;;;;4.78;4.25;;;;;;;18.64;100.00;99984.25;4996146;28;20092;-66
2021/07/12 06:18:19;;;;;;;10.05;4.38;;;;;;;18.76;100.00;99985.38;4997119;28;20566;-67
2021/07/12 06:21:03;;;;;;;6.13;4.47;;;;;;;18.83;100.00;99994.31;4997241;28;20081;-66
2021/07/12 06:23:47;;;;;;;7.25;4.07;;;;;;;19.03;100.00;99987.94;4996067;28;20108;-66
2021/07/12 06:26:31;;;;;;;4.22;3.50;;;;;;;19.15;98.92;99990.84;4996041;28;20159;-66
2021/07/12 06:29:15;;;;;;;9.27;4.53;;;;;;;19.17;98.89;99994.19;4995939;28;20114;-66
2021/07/12 06:31:58;;;;;;;7.65;4.35;;;;;;;19.28;97.37;99993.63;4995986;28;20073;-67
2021/07/12 06:34:43;;;;;;;8.60;4.30;;;;;;;19.29;96.99;99995.28;4996173;28;20049;-66
2021/07/12 06:37:27;;;;;;;5.35;3.60;;;;;;;19.36;96.99;99988.84;4995882;28;20454;-66
2021/07/12 06:40:11;;;;;;;4.72;3.60;;;;;;;19.54;96.69;99982.81;4995379;28;20097;-66
2021/07/12 06:42:55;;;;;;;5.32;3.58;;;;;;;19.68;95.69;99977.19;4995736;28;20120;-66
2021/07/12 06:45:39;;;;;;;12.13;4.45;;;;;;;19.81;95.03;99973.63;4996465;28;20515;-67
2021/07/12 06:48:22;;;;;;;8.00;3.67;;;;;;;19.85;94.15;99958.63;4995368;28;20189;-66
2021/07/12 06:51:08;;;;;;;5.22;3.60;;;;;;;19.84;94.15;99946.16;4996392;28;20104;-66
2021/07/12 06:53:52;;;;;;;5.40;3.22;;;;;;;19.97;93.78;99940.72;4995593;28;20044;-66
2021/07/12 06:56:36;;;;;;;11.25;3.33;;;;;;;20.17;92.52;99936.09;4996484;28;20056;-66
2021/07/12 06:59:20;;;;;;;;;;;;;;;20.21;92.41;99927.34;4995447;28;20049;-66
2021/07/12 07:02:04;;;;;;;9.43;3.80;;;;;;;20.32;91.57;99923.16;4996083;28;19925;-66
2021/07/12 07:04:48;;;;;;;3.72;3.15;;;;;;;20.54;89.76;99919.91;4995335;28;20103;-64
2021/07/12 07:07:32;;;;;;;4.30;3.22;;;;;;;20.77;88.18;99903.94;4995229;28;20104;-67
2021/07/12 07:10:16;;;;;;;4.80;3.22;;;;;;;20.86;87.90;99893.69;4981472;28;20096;-66
2021/07/12 07:13:00;;;;;;;6.95;3.40;;;;;;;20.92;87.11;99892.84;4994926;28;20157;-66
2021/07/12 07:15:44;;;;;;;;;;;;;;;21.09;86.04;99888.53;4996290;28;20073;-67
2021/07/12 07:18:27;;;;;;;9.73;4.10;;;;;;;21.26;85.52;99894.00;4981481;28;20000;-66
2021/07/12 07:21:11;;;;;;;9.23;3.63;;;;;;;21.33;85.79;99883.09;4995984;28;20299;-67
2021/07/12 07:23:55;;;;;;;5.60;3.60;;;;;;;21.47;83.93;99890.91;4994968;28;20053;-67
2021/07/12 07:26:39;;;;;;;5.40;3.40;;;;;;;21.30;84.79;99884.38;4980951;28;20104;-67
2021/07/12 07:29:23;;;;;;;4.10;2.70;;;;;;;21.54;84.35;99883.53;4981181;28;20045;-67
2021/07/12 07:32:07;;;;;;;5.65;2.75;;;;;;;21.70;84.50;99884.88;4995601;28;20475;-67
2021/07/12 07:34:51;;;;;;;4.22;3.00;;;;;;;21.90;82.22;99869.22;4994857;28;20049;-67
2021/07/12 07:37:35;;;;;;;4.95;2.85;;;;;;;22.10;81.96;99857.03;4995705;28;20504;-67
2021/07/12 07:40:20;;;;;;;5.78;3.03;;;;;;;22.35;80.58;99848.78;4981016;28;20053;-67
2021/07/12 07:43:04;;;;;;;4.35;3.22;;;;;;;22.67;78.31;99845.63;4994644;28;20061;-66
2021/07/12 07:45:48;;;;;;;3.78;3.25;;;;;;;22.90;77.28;99845.69;4980819;28;20093;-66
2021/07/12 07:48:32;;;;;;;6.03;2.80;;;;;;;23.10;73.58;99848.91;4994197;28;20534;-66
2021/07/12 07:51:16;;;;;;;3.85;2.78;;;;;;;23.35;72.97;99854.97;4994762;28;20120;-66
2021/07/12 07:53:59;;;;;;;;;;;;;;;23.56;72.98;99857.13;4994937;28;20053;-67
2021/07/12 07:56:43;;;;;;;8.20;3.00;;;;;;;23.69;71.40;99843.28;4980566;28;19921;-67
2021/07/12 07:59:27;;;;;;;;;;;;;;;23.88;71.05;99825.75;4993784;28;20346;-66
2021/07/12 08:02:11;;;;;;;4.57;2.40;;;;;;;24.17;70.20;99821.97;4994218;28;19927;-67
2021/07/12 08:04:55;;;;;;;;;;;;;;;24.34;68.13;99815.53;4994445;28;20796;-66
2021/07/12 08:07:39;;;;;;;7.63;2.73;;;;;;;24.50;66.76;99812.00;4994147;28;19968;-66
2021/07/12 08:10:22;;;;;;;;;;;;;;;24.62;64.97;99809.28;4994207;28;20053;-67
2021/07/12 08:13:09;;;;;;;3.10;2.22;;;;;;;24.79;63.88;99807.41;4980190;28;19920;-66
2021/07/12 08:15:53;;;;;;;15.80;3.90;;;;;;;25.01;63.83;99802.88;4993908;28;20554;-66
2021/07/12 08:18:37;;;;;;;5.25;2.45;;;;;;;25.19;64.38;99783.47;4993740;28;20100;-67
2021/07/12 08:21:22;;;;;;;3.75;1.83;;;;;;;25.27;62.75;99766.72;4993759;28;20530;-67
2021/07/12 08:24:06;;;;;;;3.28;2.20;;;;;;;25.36;61.93;99748.84;4993718;28;20089;-67
2021/07/12 08:26:50;;;;;;;2.60;2.20;;;;;;;25.49;61.15;99748.47;4993801;28;20088;-67
2021/07/12 08:29:34;;;;;;;;;;;;;;;25.48;60.26;99757.75;4995074;28;20057;-67
2021/07/12 08:32:21;;;;;;;3.63;2.17;;;;;;;25.67;59.32;99768.13;4993913;28;20048;-67
2021/07/12 08:35:06;;;;;;;2.17;1.83;;;;;;;25.73;59.82;99778.03;4994895;28;20053;-66
2021/07/12 08:37:50;;;;;;;4.88;2.03;;;;;;;25.92;59.84;99775.84;4993285;28;20105;-67
2021/07/12 08:40:34;;;;;;;4.18;2.33;;;;;;;25.98;58.70;99785.75;4979816;28;20053;-66
2021/07/12 08:43:18;;;;;;;3.40;2.15;;;;;;;26.02;57.09;99795.91;4993533;28;20120;-67
2021/07/12 08:46:02;;;;;;;;;;;;;;;26.17;58.11;99792.53;4994926;28;20045;-67
2021/07/12 08:48:46;;;;;;;4.70;2.58;;;;;;;26.32;59.21;99790.78;4993093;28;19920;-67
2021/07/12 08:51:29;;;;;;;;;;;;;;;26.52;57.94;99790.19;4993847;28;20249;-67
2021/07/12 08:54:13;;;;;;;7.00;2.75;;;;;;;26.62;57.89;99784.81;4979575;28;20338;-66
2021/07/12 08:56:57;;;;;;;2.50;2.30;;;;;;;26.83;57.42;99767.50;4994200;28;20042;-67
2021/07/12 08:59:41;;;;;;;;;;;;;;;26.99;56.42;99756.44;4994880;28;20061;-67
2021/07/12 09:02:25;;;;;;;5.70;2.60;;;;;;;27.29;56.39;99740.22;4993208;28;19925;-66
2021/07/12 09:05:09;;;;;;;;;;;;;;;27.38;55.35;99728.53;4993378;28;20049;-66
2021/07/12 09:07:53;;;;;;;3.88;2.05;;;;;;;27.49;54.63;99754.03;4993352;28;20426;-66
2021/07/12 09:10:37;;;;;;;1.90;1.80;;;;;;;27.65;54.12;99784.00;4992022;28;20084;-67
2021/07/12 09:13:42;;;;;;;3.13;1.90;;;;;;;27.81;52.13;99802.16;4994072;28;20112;-66
2021/07/12 09:16:33;;;;;;;4.38;2.35;;;;;;;28.04;52.37;99803.66;4993045;28;20407;-66
2021/07/12 09:19:25;;;;;;;4.53;1.92;;;;;;;28.15;51.41;99806.13;4993604;28;20054;-65
2021/07/12 09:22:11;;;;;;;2.03;1.80;;;;;;;28.26;51.89;99801.53;4993589;28;20128;-66
2021/07/12 09:24:56;;;;;;;3.95;2.00;;;;;;;28.29;50.32;99807.31;4992792;28;20053;-66
2021/07/12 09:27:42;;;;;;;2.85;2.10;;;;;;;28.34;49.18;99804.59;4993916;28;20092;-67
2021/07/12 09:30:32;;;;;;;2.40;2.00;;;;;;;28.22;48.23;99803.19;4992690;28;20129;-67
2021/07/12 09:33:20;;;;;;;4.43;2.45;;;;;;;28.24;48.68;99803.72;4992794;28;20410;-66
2021/07/12 09:36:16;;;;;;;3.83;2.10;;;;;;;28.35;48.68;99789.78;4992929;28;20049;-67
2021/07/12 09:39:19;;;;;;;4.05;1.90;;;;;;;28.14;49.05;99793.53;4978895;28;20057;-67
2021/07/12 09:42:06;;;;;;;2.53;1.95;;;;;;;28.29;48.64;99788.13;4992621;28;20084;-67
2021/07/12 09:44:51;;;;;;;2.20;1.95;;;;;;;28.57;49.42;99789.56;4992852;28;20081;-67
2021/07/12 09:47:37;;;;;;;2.33;1.92;;;;;;;28.74;48.21;99781.91;4992822;28;20073;-67
2021/07/12 09:50:26;;;;;;;2.80;1.75;;;;;;;28.50;48.35;99776.13;4992525;28;20049;-67
2021/07/12 09:53:10;;;;;;;2.55;1.85;;;;;;;28.41;48.03;99776.91;4993719;28;20068;-67
2021/07/12 09:55:55;;;;;;;2.90;2.10;;;;;;;28.70;48.80;99776.16;4993947;28;20053;-66
2021/07/12 09:58:39;;;;;;;5.32;1.80;;;;;;;29.05;49.10;99773.41;4993434;28;20056;-67
2021/07/12 10:01:24;;;;;;;2.50;1.90;;;;;;;29.21;49.19;99761.34;4993294;28;20084;-67
2021/07/12 10:04:07;;;;;;;3.85;2.05;;;;;;;29.42;47.77;99751.13;4992928;28;20057;-65
2021/07/12 10:06:53;;;;;;;5.65;2.20;;;;;;;29.79;48.19;99757.91;4978616;28;20570;-67
2021/07/12 10:09:37;;;;;;;3.90;2.30;;;;;;;30.00;47.58;99754.78;4992286;28;20466;-67
2021/07/12 10:12:22;;;;;;;3.13;2.20;;;;;;;30.22;46.83;99743.44;4992659;28;20057;-67
2021/07/12 10:15:07;;;;;;;5.80;2.25;;;;;;;30.47;46.37;99743.25;4993817;28;20122;-67
2021/07/12 10:17:51;;;;;;;5.85;3.25;;;;;;;30.68;45.70;99744.78;4993548;28;20415;-68
2021/07/12 10:20:36;;;;;;;2.67;2.10;;;;;;;30.91;44.55;99749.53;4992162;28;20478;-67
2021/07/12 10:23:20;;;;;;;2.30;1.90;;;;;;;31.18;44.35;99766.41;4995119;28;20101;-67
2021/07/12 10:26:04;;;;;;;2.55;2.13;;;;;;;31.40;42.07;99763.97;4996118;28;20048;-67
2021/07/12 10:28:48;;;;;;;4.43;2.75;;;;;;;31.66;42.02;99770.84;4996638;28;20534;-67
2021/07/12 10:31:35;;;;;;;2.28;2.10;;;;;;;32.03;42.21;99766.28;4996650;28;20115;-67
2021/07/12 10:34:27;;;;;;;3.47;2.13;;;;;;;32.31;40.65;99759.03;4995609;28;20570;-67
2021/07/12 10:37:22;;;;;;;2.22;2.00;;;;;;;32.57;40.85;99752.84;4995793;28;20061;-67
2021/07/12 10:40:08;;;;;;;4.90;2.17;;;;;;;33.22;39.67;99760.91;4996423;28;20120;-67
2021/07/12 10:42:53;;;;;;;2.95;2.00;;;;;;;33.94;37.99;99756.47;4995764;28;20053;-67
2021/07/12 10:45:40;;;;;;;2.38;2.17;;;;;;;34.98;36.85;99755.19;4995610;28;20463;-67
2021/07/12 10:48:33;;;;;;;3.30;2.03;;;;;;;35.62;34.28;99760.13;4996827;28;20577;-66
2021/07/12 10:51:24;;;;;;;2.50;2.30;;;;;;;36.14;32.58;99757.28;4995654;28;20567;-67
2021/07/12 10:54:11;;;;;;;3.72;2.17;;;;;;;36.40;32.64;99760.88;4995288;28;20052;-67
2021/07/12 10:56:57;;;;;;;3.95;1.90;;;;;;;36.77;31.20;99760.28;4996198;28;20049;-66
2021/07/12 10:59:41;;;;;;;4.55;2.00;;;;;;;37.35;31.39;99760.50;4996309;28;20057;-67
2021/07/12 11:02:24;;;;;;;4.32;2.10;;;;;;;37.98;30.44;99766.03;4996043;28;20053;-68
2021/07/12 11:05:15;;;;;;;3.25;2.20;;;;;;;38.09;29.17;99773.66;4996110;28;20089;-67
2021/07/12 11:07:59;;;;;;;2.30;2.03;;;;;;;37.97;28.78;99773.56;4995283;28;20105;-67
2021/07/12 11:10:50;;;;;;;2.83;2.10;;;;;;;38.33;27.08;99771.06;4994960;28;20093;-66
2021/07/12 11:13:53;;;;;;;4.65;2.10;;;;;;;39.59;26.84;99762.69;4996063;28;20048;-68
2021/07/12 11:16:45;;;;;;;3.25;1.98;;;;;;;40.31;25.51;99754.34;4994899;28;20044;-67
2021/07/12 11:19:33;;;;;;;3.33;2.10;;;;;;;41.19;24.52;99743.81;4995829;28;20057;-68
2021/07/12 11:22:23;;;;;;;6.15;2.42;;;;;;;41.78;23.41;99758.63;4981409;28;20222;-66
2021/07/12 11:25:08;;;;;;;2.85;2.30;;;;;;;42.31;22.53;99752.31;4994980;28;20104;-67
2021/07/12 11:28:07;;;;;;;4.00;3.55;;;;;;;42.93;22.57;99733.31;4995848;28;20093;-67
2021/07/12 11:30:51;;;;;;;3.55;2.75;;;;;;;42.94;22.48;99722.88;4994741;28;20089;-67
2021/07/12 11:33:35;;;;;;;2.58;2.15;;;;;;;40.62;24.31;99720.97;4994093;28;20462;-67
2021/07/12 11:36:18;;;;;;;3.55;2.38;;;;;;;39.22;26.29;99720.31;4994768;28;20130;-67
2021/07/12 11:39:03;;;;;;;4.43;2.40;;;;;;;39.40;25.66;99706.63;4995729;28;20052;-67
2021/07/12 11:41:48;;;;;;;6.00;2.30;;;;;;;39.83;25.94;99704.13;4994468;28;20053;-67
2021/07/12 11:44:33;;;;;;;3.13;2.03;;;;;;;39.14;26.70;99705.28;4981604;28;20138;-67
2021/07/12 11:47:20;;;;;;;3.08;2.17;;;;;;;38.75;27.80;99699.44;4994331;28;20109;-67
2021/07/12 11:50:16;;;;;;;2.75;2.00;;;;;;;38.05;27.79;99713.44;4995487;28;20527;-67
2021/07/12 11:53:05;;;;;;;1.98;1.88;;;;;;;37.88;28.29;99707.97;4995483;28;20073;-66
2021/07/12 11:55:49;;;;;;;2.65;2.40;;;;;;;38.58;27.83;99694.03;4994417;28;20052;-66
2021/07/12 11:58:33;;;;;;;2.42;2.22;;;;;;;38.29;28.06;99689.34;4980257;28;20057;-67
2021/07/12 12:01:20;;;;;;;6.82;2.05;;;;;;;39.09;27.88;99687.94;4994881;28;20092;-66
2021/07/12 12:04:04;;;;;;;5.80;2.13;;;;;;;38.96;26.84;99677.94;4993944;28;20415;-67
2021/07/12 12:06:48;;;;;;;2.30;2.10;;;;;;;39.59;25.73;99681.75;4993953;28;20111;-67
2021/07/12 12:09:48;;;;;;;4.78;2.33;;;;;;;39.58;25.83;99680.13;4980625;28;20518;-65
2021/07/12 12:12:42;;;;;;;3.58;2.10;;;;;;;38.95;26.74;99656.81;4994049;28;20073;-67
2021/07/12 12:15:29;;;;;;;2.40;2.20;;;;;;;37.72;28.50;99659.59;4994734;28;20530;-67
2021/07/12 12:18:15;;;;;;;2.60;2.40;;;;;;;36.82;29.85;99669.25;4993868;28;20049;-67
2021/07/12 12:21:00;;;;;;;6.20;2.42;;;;;;;35.66;31.36;99666.88;4993774;28;20105;-67
2021/07/12 12:23:44;;;;;;;5.65;2.78;;;;;;;35.08;32.56;99669.84;4993622;28;20490;-67
2021/07/12 12:26:28;;;;;;;4.53;2.72;;;;;;;34.57;33.49;99655.66;4980068;28;20112;-66
2021/07/12 12:29:14;;;;;;;7.60;4.65;;;;;;;34.56;34.72;99651.25;4993996;28;20045;-67
2021/07/12 12:31:58;;;;;;;4.90;2.35;;;;;;;34.38;34.20;99643.97;4980003;28;20463;-66
2021/07/12 12:34:43;;;;;;;3.20;2.10;;;;;;;34.72;34.03;99624.88;4993644;28;20432;-64
2021/07/12 12:37:39;;;;;;;2.30;2.10;;;;;;;35.08;33.60;99616.41;4993617;28;20057;-66
2021/07/12 12:40:25;;;;;;;3.53;2.40;;;;;;;35.95;32.43;99615.22;4994737;28;20049;-67
2021/07/12 12:43:14;;;;;;;2.35;2.15;;;;;;;37.16;31.64;99623.91;4993580;28;20101;-67
2021/07/12 12:46:04;;;;;;;5.05;2.42;;;;;;;38.15;29.08;99629.50;5002888;28;20106;-67
2021/07/12 12:48:48;;;;;;;2.33;2.13;;;;;;;39.31;27.08;99652.13;4994144;28;20053;-67
2021/07/12 12:51:34;;;;;;;3.33;2.10;;;;;;;39.95;25.51;99656.66;4994073;28;20122;-67
2021/07/12 12:54:18;;;;;;;5.15;2.70;;;;;;;40.70;25.26;99647.34;4979362;28;20081;-67
2021/07/12 12:57:04;;;;;;;3.28;2.40;;;;;;;41.32;24.59;99644.69;4994298;28;20128;-66